sensor_id;sensor_type;location;lat;lon;timestamp;temperature;humidity
33837;DHT22;20140;49.356;8.812;2023-11-21T00:01:35;9.00;99.90
33837;DHT22;20140;49.356;8.812;2023-11-21T00:04:00;9.00;99.90
33837;DHT22;20140;49.356;8.812;2023-11-21T00:06:26;9.00;99.90
33837;DHT22;20140;49.356;8.812;2023-11-21T00:08:52;8.90;99.90
33837;DHT22;20140;49.356;8.812;2023-11-21T00:11:17;8.90;99.90
33837;DHT22;20140;49.356;8.812;2023-11-21T00:13:43;8.90;99.90
33837;DHT22;20140;49.356;8.812;2023-11-21T00:16:09;9.00;99.90
33837;DHT22;20140;49.356;8.812;2023-11-21T00:18:34;9.00;99.90
33837;DHT22;20140;49.356;8.812;2023-11-21T00:20:59;9.00;99.90
33837;DHT22;20140;49.356;8.812;2023-11-21T00:23:25;9.00;99.90
33837;DHT22;20140;49.356;8.812;2023-11-21T00:25:50;9.00;99.90
33837;DHT22;20140;49.356;8.812;2023-11-21T00:28:16;9.00;99.90
33837;DHT22;20140;49.356;8.812;2023-11-21T00:30:41;9.00;99.90
33837;DHT22;20140;49.356;8.812;2023-11-21T00:33:07;9.00;99.90
33837;DHT22;20140;49.356;8.812;2023-11-21T00:35:32;9.00;99.90
33837;DHT22;20140;49.356;8.812;2023-11-21T00:37:58;9.00;99.90
33837;DHT22;20140;49.356;8.812;2023-11-21T00:40:23;9.00;99.90
33837;DHT22;20140;49.356;8.812;2023-11-21T00:42:50;9.00;99.90
33837;DHT22;20140;49.356;8.812;2023-11-21T00:45:15;9.00;99.90
33837;DHT22;20140;49.356;8.812;2023-11-21T00:47:41;9.00;99.90
33837;DHT22;20140;49.356;8.812;2023-11-21T00:50:06;9.00;99.90
33837;DHT22;20140;49.356;8.812;2023-11-21T00:52:32;9.00;99.90
33837;DHT22;20140;49.356;8.812;2023-11-21T00:54:58;9.00;99.90
33837;DHT22;20140;49.356;8.812;2023-11-21T00:57:28;9.00;99.90
33837;DHT22;20140;49.356;8.812;2023-11-21T00:59:53;9.00;99.90
33837;DHT22;20140;49.356;8.812;2023-11-21T01:02:19;9.10;99.90
33837;DHT22;20140;49.356;8.812;2023-11-21T01:04:44;9.10;99.90
33837;DHT22;20140;49.356;8.812;2023-11-21T01:07:10;9.10;99.90
33837;DHT22;20140;49.356;8.812;2023-11-21T01:09:35;9.10;99.90
33837;DHT22;20140;49.356;8.812;2023-11-21T01:12:00;9.10;99.90
33837;DHT22;20140;49.356;8.812;2023-11-21T01:14:26;9.10;99.90
33837;DHT22;20140;49.356;8.812;2023-11-21T01:16:52;9.10;99.90
33837;DHT22;20140;49.356;8.812;2023-11-21T01:19:17;9.10;99.90
33837;DHT22;20140;49.356;8.812;2023-11-21T01:21:43;9.10;99.90
33837;DHT22;20140;49.356;8.812;2023-11-21T01:24:08;9.10;99.90
33837;DHT22;20140;49.356;8.812;2023-11-21T01:26:34;9.10;99.90
33837;DHT22;20140;49.356;8.812;2023-11-21T01:28:59;9.20;99.90
33837;DHT22;20140;49.356;8.812;2023-11-21T01:31:25;9.20;99.90
33837;DHT22;20140;49.356;8.812;2023-11-21T01:33:54;9.20;99.90
33837;DHT22;20140;49.356;8.812;2023-11-21T01:36:20;9.20;99.90
33837;DHT22;20140;49.356;8.812;2023-11-21T01:38:46;9.20;99.90
33837;DHT22;20140;49.356;8.812;2023-11-21T01:41:13;9.20;99.90
33837;DHT22;20140;49.356;8.812;2023-11-21T01:43:39;9.20;99.90
33837;DHT22;20140;49.356;8.812;2023-11-21T01:46:05;9.20;99.90
33837;DHT22;20140;49.356;8.812;2023-11-21T01:48:31;9.20;99.90
33837;DHT22;20140;49.356;8.812;2023-11-21T01:50:57;9.20;99.90
33837;DHT22;20140;49.356;8.812;2023-11-21T01:53:23;9.20;99.90
33837;DHT22;20140;49.356;8.812;2023-11-21T01:55:50;9.20;99.90
33837;DHT22;20140;49.356;8.812;2023-11-21T01:58:16;9.30;99.90
33837;DHT22;20140;49.356;8.812;2023-11-21T02:00:41;9.30;99.90
33837;DHT22;20140;49.356;8.812;2023-11-21T02:03:07;9.20;99.90
33837;DHT22;20140;49.356;8.812;2023-11-21T02:05:32;9.20;99.90
33837;DHT22;20140;49.356;8.812;2023-11-21T02:07:58;9.20;99.90
33837;DHT22;20140;49.356;8.812;2023-11-21T02:10:23;9.30;99.90
33837;DHT22;20140;49.356;8.812;2023-11-21T02:12:49;9.30;99.90
33837;DHT22;20140;49.356;8.812;2023-11-21T02:15:18;9.30;99.90
33837;DHT22;20140;49.356;8.812;2023-11-21T02:17:46;9.20;99.90
33837;DHT22;20140;49.356;8.812;2023-11-21T02:20:21;9.20;99.90
33837;DHT22;20140;49.356;8.812;2023-11-21T02:22:51;9.20;99.90
33837;DHT22;20140;49.356;8.812;2023-11-21T02:25:30;9.20;99.90
33837;DHT22;20140;49.356;8.812;2023-11-21T02:27:58;9.20;99.90
33837;DHT22;20140;49.356;8.812;2023-11-21T02:30:24;9.20;99.90
33837;DHT22;20140;49.356;8.812;2023-11-21T02:35:53;9.20;99.90
33837;DHT22;20140;49.356;8.812;2023-11-21T02:38:20;9.30;99.90
33837;DHT22;20140;49.356;8.812;2023-11-21T02:40:46;9.20;99.90
33837;DHT22;20140;49.356;8.812;2023-11-21T02:43:11;9.20;99.90
33837;DHT22;20140;49.356;8.812;2023-11-21T02:45:37;9.20;99.90
33837;DHT22;20140;49.356;8.812;2023-11-21T02:48:03;9.20;99.90
33837;DHT22;20140;49.356;8.812;2023-11-21T02:50:28;9.20;99.90
33837;DHT22;20140;49.356;8.812;2023-11-21T02:52:55;9.20;99.90
33837;DHT22;20140;49.356;8.812;2023-11-21T02:55:22;9.30;99.90
33837;DHT22;20140;49.356;8.812;2023-11-21T02:57:50;9.30;99.90
33837;DHT22;20140;49.356;8.812;2023-11-21T03:00:16;9.30;99.90
33837;DHT22;20140;49.356;8.812;2023-11-21T03:02:42;9.40;99.90
33837;DHT22;20140;49.356;8.812;2023-11-21T03:05:07;9.40;99.90
33837;DHT22;20140;49.356;8.812;2023-11-21T03:07:39;9.30;99.90
33837;DHT22;20140;49.356;8.812;2023-11-21T03:10:05;9.30;99.90
33837;DHT22;20140;49.356;8.812;2023-11-21T03:12:31;9.30;99.90
33837;DHT22;20140;49.356;8.812;2023-11-21T03:14:57;9.30;99.90
33837;DHT22;20140;49.356;8.812;2023-11-21T03:17:22;9.30;99.90
33837;DHT22;20140;49.356;8.812;2023-11-21T03:19:47;9.30;99.90
33837;DHT22;20140;49.356;8.812;2023-11-21T03:22:13;9.30;99.90
33837;DHT22;20140;49.356;8.812;2023-11-21T03:24:38;9.20;99.90
33837;DHT22;20140;49.356;8.812;2023-11-21T03:27:04;9.20;99.90
33837;DHT22;20140;49.356;8.812;2023-11-21T03:29:30;9.30;99.90
33837;DHT22;20140;49.356;8.812;2023-11-21T03:31:55;9.30;99.90
33837;DHT22;20140;49.356;8.812;2023-11-21T03:34:24;9.30;99.90
33837;DHT22;20140;49.356;8.812;2023-11-21T03:36:51;9.20;99.90
33837;DHT22;20140;49.356;8.812;2023-11-21T03:39:17;9.30;99.90
33837;DHT22;20140;49.356;8.812;2023-11-21T03:41:42;9.30;99.90
33837;DHT22;20140;49.356;8.812;2023-11-21T03:44:08;9.30;99.90
33837;DHT22;20140;49.356;8.812;2023-11-21T03:46:33;9.20;99.90
33837;DHT22;20140;49.356;8.812;2023-11-21T03:48:59;9.30;99.90
33837;DHT22;20140;49.356;8.812;2023-11-21T03:51:24;9.30;99.90
33837;DHT22;20140;49.356;8.812;2023-11-21T03:53:49;9.30;99.90
33837;DHT22;20140;49.356;8.812;2023-11-21T03:56:15;9.20;99.90
33837;DHT22;20140;49.356;8.812;2023-11-21T03:58:40;9.20;99.90
33837;DHT22;20140;49.356;8.812;2023-11-21T04:01:06;9.20;99.90
33837;DHT22;20140;49.356;8.812;2023-11-21T04:03:31;9.20;99.90
33837;DHT22;20140;49.356;8.812;2023-11-21T04:05:57;9.20;99.90
33837;DHT22;20140;49.356;8.812;2023-11-21T04:08:22;9.20;99.90
33837;DHT22;20140;49.356;8.812;2023-11-21T04:10:48;9.20;99.90
33837;DHT22;20140;49.356;8.812;2023-11-21T04:13:13;9.20;99.90
33837;DHT22;20140;49.356;8.812;2023-11-21T04:15:39;9.20;99.90
33837;DHT22;20140;49.356;8.812;2023-11-21T04:18:04;9.30;99.90
33837;DHT22;20140;49.356;8.812;2023-11-21T04:20:30;9.20;99.90
33837;DHT22;20140;49.356;8.812;2023-11-21T04:22:55;9.20;99.90
33837;DHT22;20140;49.356;8.812;2023-11-21T04:25:21;9.30;99.90
33837;DHT22;20140;49.356;8.812;2023-11-21T04:27:48;9.20;99.90
33837;DHT22;20140;49.356;8.812;2023-11-21T04:30:14;9.20;99.90
33837;DHT22;20140;49.356;8.812;2023-11-21T04:32:40;9.20;99.90
33837;DHT22;20140;49.356;8.812;2023-11-21T04:35:05;9.20;99.90
33837;DHT22;20140;49.356;8.812;2023-11-21T04:37:31;9.10;99.90
33837;DHT22;20140;49.356;8.812;2023-11-21T04:39:56;9.00;99.90
33837;DHT22;20140;49.356;8.812;2023-11-21T04:42:22;9.10;99.90
33837;DHT22;20140;49.356;8.812;2023-11-21T04:44:48;9.10;99.90
33837;DHT22;20140;49.356;8.812;2023-11-21T04:47:14;9.10;99.90
33837;DHT22;20140;49.356;8.812;2023-11-21T04:49:41;9.10;99.90
33837;DHT22;20140;49.356;8.812;2023-11-21T04:52:07;9.20;99.90
33837;DHT22;20140;49.356;8.812;2023-11-21T04:54:35;9.20;99.90
33837;DHT22;20140;49.356;8.812;2023-11-21T04:57:01;9.10;99.90
33837;DHT22;20140;49.356;8.812;2023-11-21T04:59:26;9.10;99.90
33837;DHT22;20140;49.356;8.812;2023-11-21T05:01:52;9.10;99.90
33837;DHT22;20140;49.356;8.812;2023-11-21T05:04:19;9.10;99.90
33837;DHT22;20140;49.356;8.812;2023-11-21T05:06:44;9.10;99.90
33837;DHT22;20140;49.356;8.812;2023-11-21T05:09:10;9.10;99.90
33837;DHT22;20140;49.356;8.812;2023-11-21T05:11:37;9.10;99.90
33837;DHT22;20140;49.356;8.812;2023-11-21T05:14:03;9.10;99.90
33837;DHT22;20140;49.356;8.812;2023-11-21T05:16:29;9.00;99.90
33837;DHT22;20140;49.356;8.812;2023-11-21T05:18:54;9.00;99.90
33837;DHT22;20140;49.356;8.812;2023-11-21T05:21:28;9.10;99.90
33837;DHT22;20140;49.356;8.812;2023-11-21T05:23:57;9.10;99.90
33837;DHT22;20140;49.356;8.812;2023-11-21T05:26:23;9.10;99.90
33837;DHT22;20140;49.356;8.812;2023-11-21T05:28:48;9.10;99.90
33837;DHT22;20140;49.356;8.812;2023-11-21T05:31:14;9.10;99.90
33837;DHT22;20140;49.356;8.812;2023-11-21T05:33:40;9.10;99.90
33837;DHT22;20140;49.356;8.812;2023-11-21T05:36:06;9.10;99.90
33837;DHT22;20140;49.356;8.812;2023-11-21T05:38:33;9.10;99.90
33837;DHT22;20140;49.356;8.812;2023-11-21T05:40:58;9.10;99.90
33837;DHT22;20140;49.356;8.812;2023-11-21T05:43:24;9.10;99.90
33837;DHT22;20140;49.356;8.812;2023-11-21T05:45:49;9.10;99.90
33837;DHT22;20140;49.356;8.812;2023-11-21T05:48:15;9.10;99.90
33837;DHT22;20140;49.356;8.812;2023-11-21T05:50:41;9.10;99.90
33837;DHT22;20140;49.356;8.812;2023-11-21T05:53:06;9.10;99.90
33837;DHT22;20140;49.356;8.812;2023-11-21T05:55:32;9.10;99.90
33837;DHT22;20140;49.356;8.812;2023-11-21T05:57:59;9.10;99.90
33837;DHT22;20140;49.356;8.812;2023-11-21T06:00:25;9.10;99.90
33837;DHT22;20140;49.356;8.812;2023-11-21T06:02:52;9.10;99.90
33837;DHT22;20140;49.356;8.812;2023-11-21T06:05:18;9.10;99.90
33837;DHT22;20140;49.356;8.812;2023-11-21T06:07:44;9.10;99.90
33837;DHT22;20140;49.356;8.812;2023-11-21T06:10:11;9.10;99.90
33837;DHT22;20140;49.356;8.812;2023-11-21T06:12:38;9.20;99.90
33837;DHT22;20140;49.356;8.812;2023-11-21T06:15:03;9.10;99.90
33837;DHT22;20140;49.356;8.812;2023-11-21T06:17:32;9.10;99.90
33837;DHT22;20140;49.356;8.812;2023-11-21T06:20:01;9.20;99.90
33837;DHT22;20140;49.356;8.812;2023-11-21T06:22:29;9.20;99.90
33837;DHT22;20140;49.356;8.812;2023-11-21T06:24:55;9.20;99.90
33837;DHT22;20140;49.356;8.812;2023-11-21T06:27:21;9.20;99.90
33837;DHT22;20140;49.356;8.812;2023-11-21T06:29:46;9.10;99.90
33837;DHT22;20140;49.356;8.812;2023-11-21T06:32:12;9.10;99.90
33837;DHT22;20140;49.356;8.812;2023-11-21T06:34:38;9.10;99.90
33837;DHT22;20140;49.356;8.812;2023-11-21T06:37:03;9.10;99.90
33837;DHT22;20140;49.356;8.812;2023-11-21T06:39:29;9.20;99.90
33837;DHT22;20140;49.356;8.812;2023-11-21T06:41:54;9.20;99.90
33837;DHT22;20140;49.356;8.812;2023-11-21T06:44:20;9.20;99.90
33837;DHT22;20140;49.356;8.812;2023-11-21T06:46:45;9.20;99.90
33837;DHT22;20140;49.356;8.812;2023-11-21T06:49:10;9.20;99.90
33837;DHT22;20140;49.356;8.812;2023-11-21T06:51:36;9.20;99.90
33837;DHT22;20140;49.356;8.812;2023-11-21T06:54:01;9.30;99.90
33837;DHT22;20140;49.356;8.812;2023-11-21T06:56:27;9.20;99.90
33837;DHT22;20140;49.356;8.812;2023-11-21T06:58:52;9.20;99.90
33837;DHT22;20140;49.356;8.812;2023-11-21T07:01:21;9.20;99.90
33837;DHT22;20140;49.356;8.812;2023-11-21T07:03:46;9.30;99.90
33837;DHT22;20140;49.356;8.812;2023-11-21T07:06:12;9.20;99.90
33837;DHT22;20140;49.356;8.812;2023-11-21T07:08:37;9.10;99.90
33837;DHT22;20140;49.356;8.812;2023-11-21T07:11:06;9.20;99.90
33837;DHT22;20140;49.356;8.812;2023-11-21T07:13:31;9.20;99.90
33837;DHT22;20140;49.356;8.812;2023-11-21T07:15:59;9.10;99.90
33837;DHT22;20140;49.356;8.812;2023-11-21T07:18:25;9.10;99.90
33837;DHT22;20140;49.356;8.812;2023-11-21T07:20:50;9.10;99.90
33837;DHT22;20140;49.356;8.812;2023-11-21T07:23:17;9.10;99.90
33837;DHT22;20140;49.356;8.812;2023-11-21T07:25:42;9.10;99.90
33837;DHT22;20140;49.356;8.812;2023-11-21T07:28:08;9.10;99.90
33837;DHT22;20140;49.356;8.812;2023-11-21T07:30:34;9.10;99.90
33837;DHT22;20140;49.356;8.812;2023-11-21T07:32:59;9.10;99.90
33837;DHT22;20140;49.356;8.812;2023-11-21T07:35:25;9.10;99.90
33837;DHT22;20140;49.356;8.812;2023-11-21T07:37:50;9.10;99.90
33837;DHT22;20140;49.356;8.812;2023-11-21T07:40:15;9.10;99.90
33837;DHT22;20140;49.356;8.812;2023-11-21T07:42:42;9.20;99.90
33837;DHT22;20140;49.356;8.812;2023-11-21T07:45:08;9.10;99.90
33837;DHT22;20140;49.356;8.812;2023-11-21T07:47:33;9.10;99.90
33837;DHT22;20140;49.356;8.812;2023-11-21T07:50:00;9.20;99.90
33837;DHT22;20140;49.356;8.812;2023-11-21T07:52:25;9.20;99.90
33837;DHT22;20140;49.356;8.812;2023-11-21T07:54:51;9.20;99.90
33837;DHT22;20140;49.356;8.812;2023-11-21T07:57:16;9.20;99.90
33837;DHT22;20140;49.356;8.812;2023-11-21T07:59:41;9.30;99.90
33837;DHT22;20140;49.356;8.812;2023-11-21T08:02:07;9.30;99.90
33837;DHT22;20140;49.356;8.812;2023-11-21T08:04:32;9.30;99.90
33837;DHT22;20140;49.356;8.812;2023-11-21T08:06:58;9.40;99.90
33837;DHT22;20140;49.356;8.812;2023-11-21T08:09:23;9.60;99.90
33837;DHT22;20140;49.356;8.812;2023-11-21T08:11:49;9.60;99.90
33837;DHT22;20140;49.356;8.812;2023-11-21T08:14:15;9.60;99.90
33837;DHT22;20140;49.356;8.812;2023-11-21T08:16:40;9.50;99.90
33837;DHT22;20140;49.356;8.812;2023-11-21T08:19:06;9.40;99.90
33837;DHT22;20140;49.356;8.812;2023-11-21T08:21:31;9.40;99.90
33837;DHT22;20140;49.356;8.812;2023-11-21T08:23:57;9.50;99.90
33837;DHT22;20140;49.356;8.812;2023-11-21T08:26:22;9.50;99.90
33837;DHT22;20140;49.356;8.812;2023-11-21T08:28:48;9.50;99.90
33837;DHT22;20140;49.356;8.812;2023-11-21T08:31:14;9.50;99.90
33837;DHT22;20140;49.356;8.812;2023-11-21T08:33:39;9.50;99.90
33837;DHT22;20140;49.356;8.812;2023-11-21T08:36:08;9.60;99.90
33837;DHT22;20140;49.356;8.812;2023-11-21T08:38:34;9.60;99.90
33837;DHT22;20140;49.356;8.812;2023-11-21T08:41:04;9.60;99.90
33837;DHT22;20140;49.356;8.812;2023-11-21T08:43:33;9.70;99.90
33837;DHT22;20140;49.356;8.812;2023-11-21T08:45:59;9.70;99.90
33837;DHT22;20140;49.356;8.812;2023-11-21T08:48:25;9.80;99.90
33837;DHT22;20140;49.356;8.812;2023-11-21T08:50:50;10.00;99.90
33837;DHT22;20140;49.356;8.812;2023-11-21T08:53:16;10.10;99.90
33837;DHT22;20140;49.356;8.812;2023-11-21T08:55:42;10.00;99.90
33837;DHT22;20140;49.356;8.812;2023-11-21T08:58:09;10.00;99.90
33837;DHT22;20140;49.356;8.812;2023-11-21T09:00:34;10.10;99.90
33837;DHT22;20140;49.356;8.812;2023-11-21T09:03:03;10.10;99.90
33837;DHT22;20140;49.356;8.812;2023-11-21T09:05:29;10.10;99.90
33837;DHT22;20140;49.356;8.812;2023-11-21T09:07:55;10.20;99.90
33837;DHT22;20140;49.356;8.812;2023-11-21T09:10:21;10.10;99.90
33837;DHT22;20140;49.356;8.812;2023-11-21T09:12:46;10.10;99.90
33837;DHT22;20140;49.356;8.812;2023-11-21T09:15:11;10.00;99.90
33837;DHT22;20140;49.356;8.812;2023-11-21T09:17:37;10.10;99.90
33837;DHT22;20140;49.356;8.812;2023-11-21T09:20:03;10.20;99.90
33837;DHT22;20140;49.356;8.812;2023-11-21T09:22:31;10.20;99.90
33837;DHT22;20140;49.356;8.812;2023-11-21T09:24:57;10.20;99.90
33837;DHT22;20140;49.356;8.812;2023-11-21T09:27:23;10.10;99.90
33837;DHT22;20140;49.356;8.812;2023-11-21T09:29:49;10.00;99.90
33837;DHT22;20140;49.356;8.812;2023-11-21T09:32:14;10.10;99.90
33837;DHT22;20140;49.356;8.812;2023-11-21T09:34:41;10.00;99.90
33837;DHT22;20140;49.356;8.812;2023-11-21T09:37:07;9.90;99.90
33837;DHT22;20140;49.356;8.812;2023-11-21T09:39:32;9.80;99.90
33837;DHT22;20140;49.356;8.812;2023-11-21T09:42:11;9.90;99.90
33837;DHT22;20140;49.356;8.812;2023-11-21T09:44:58;10.00;99.90
33837;DHT22;20140;49.356;8.812;2023-11-21T09:47:29;10.00;99.90
33837;DHT22;20140;49.356;8.812;2023-11-21T09:49:55;10.00;99.90
33837;DHT22;20140;49.356;8.812;2023-11-21T09:54:47;10.10;99.90
33837;DHT22;20140;49.356;8.812;2023-11-21T09:57:14;10.20;99.90
33837;DHT22;20140;49.356;8.812;2023-11-21T09:59:40;10.40;99.90
33837;DHT22;20140;49.356;8.812;2023-11-21T10:02:07;10.40;99.90
33837;DHT22;20140;49.356;8.812;2023-11-21T10:04:38;10.60;99.90
33837;DHT22;20140;49.356;8.812;2023-11-21T10:07:03;10.60;99.90
33837;DHT22;20140;49.356;8.812;2023-11-21T10:09:31;10.30;99.90
33837;DHT22;20140;49.356;8.812;2023-11-21T10:11:57;10.50;99.90
33837;DHT22;20140;49.356;8.812;2023-11-21T10:14:23;10.50;99.90
33837;DHT22;20140;49.356;8.812;2023-11-21T10:16:50;10.50;99.90
33837;DHT22;20140;49.356;8.812;2023-11-21T10:19:15;10.70;99.90
33837;DHT22;20140;49.356;8.812;2023-11-21T10:21:42;10.60;99.90
33837;DHT22;20140;49.356;8.812;2023-11-21T10:24:08;10.80;99.90
33837;DHT22;20140;49.356;8.812;2023-11-21T10:26:33;11.00;99.90
33837;DHT22;20140;49.356;8.812;2023-11-21T10:28:59;11.00;99.90
33837;DHT22;20140;49.356;8.812;2023-11-21T10:31:31;10.80;99.90
33837;DHT22;20140;49.356;8.812;2023-11-21T10:34:13;10.60;99.90
33837;DHT22;20140;49.356;8.812;2023-11-21T10:36:39;10.80;99.90
33837;DHT22;20140;49.356;8.812;2023-11-21T10:39:04;10.90;99.90
33837;DHT22;20140;49.356;8.812;2023-11-21T10:41:30;10.90;99.90
33837;DHT22;20140;49.356;8.812;2023-11-21T10:43:55;11.10;99.90
33837;DHT22;20140;49.356;8.812;2023-11-21T10:46:21;10.90;99.90
33837;DHT22;20140;49.356;8.812;2023-11-21T10:48:52;10.90;99.90
33837;DHT22;20140;49.356;8.812;2023-11-21T10:51:17;10.60;99.90
33837;DHT22;20140;49.356;8.812;2023-11-21T10:53:44;10.60;99.90
33837;DHT22;20140;49.356;8.812;2023-11-21T10:56:11;10.80;99.90
33837;DHT22;20140;49.356;8.812;2023-11-21T10:58:43;10.80;99.90
33837;DHT22;20140;49.356;8.812;2023-11-21T11:01:08;11.00;99.90
33837;DHT22;20140;49.356;8.812;2023-11-21T11:03:37;10.90;99.90
33837;DHT22;20140;49.356;8.812;2023-11-21T11:06:03;11.20;99.90
33837;DHT22;20140;49.356;8.812;2023-11-21T11:08:30;11.10;99.90
33837;DHT22;20140;49.356;8.812;2023-11-21T11:10:55;10.80;99.90
33837;DHT22;20140;49.356;8.812;2023-11-21T11:13:21;10.90;99.90
33837;DHT22;20140;49.356;8.812;2023-11-21T11:15:48;10.90;99.90
33837;DHT22;20140;49.356;8.812;2023-11-21T11:18:13;10.90;99.90
33837;DHT22;20140;49.356;8.812;2023-11-21T11:20:39;11.00;99.90
33837;DHT22;20140;49.356;8.812;2023-11-21T11:25:53;11.10;99.90
33837;DHT22;20140;49.356;8.812;2023-11-21T11:28:21;11.20;99.90
33837;DHT22;20140;49.356;8.812;2023-11-21T11:30:57;11.40;99.90
33837;DHT22;20140;49.356;8.812;2023-11-21T11:33:42;11.30;99.90
33837;DHT22;20140;49.356;8.812;2023-11-21T11:38:44;11.20;99.90
33837;DHT22;20140;49.356;8.812;2023-11-21T11:41:10;11.30;99.90
33837;DHT22;20140;49.356;8.812;2023-11-21T11:43:36;11.20;99.90
33837;DHT22;20140;49.356;8.812;2023-11-21T11:46:10;11.00;99.90
33837;DHT22;20140;49.356;8.812;2023-11-21T11:48:39;11.10;99.90
33837;DHT22;20140;49.356;8.812;2023-11-21T11:51:05;11.20;99.90
33837;DHT22;20140;49.356;8.812;2023-11-21T11:53:40;11.30;99.90
33837;DHT22;20140;49.356;8.812;2023-11-21T11:56:22;11.00;99.90
33837;DHT22;20140;49.356;8.812;2023-11-21T11:58:48;11.00;99.90
33837;DHT22;20140;49.356;8.812;2023-11-21T12:01:16;10.90;99.90
33837;DHT22;20140;49.356;8.812;2023-11-21T12:03:41;10.80;99.90
33837;DHT22;20140;49.356;8.812;2023-11-21T12:06:07;10.80;99.90
33837;DHT22;20140;49.356;8.812;2023-11-21T12:08:34;10.70;99.90
33837;DHT22;20140;49.356;8.812;2023-11-21T12:11:00;10.70;99.90
33837;DHT22;20140;49.356;8.812;2023-11-21T12:13:26;10.90;99.90
33837;DHT22;20140;49.356;8.812;2023-11-21T12:15:53;10.90;99.90
33837;DHT22;20140;49.356;8.812;2023-11-21T12:18:20;10.90;99.90
33837;DHT22;20140;49.356;8.812;2023-11-21T12:20:46;10.90;99.90
33837;DHT22;20140;49.356;8.812;2023-11-21T12:23:14;10.90;99.90
33837;DHT22;20140;49.356;8.812;2023-11-21T12:25:42;11.10;99.90
33837;DHT22;20140;49.356;8.812;2023-11-21T12:28:08;11.10;99.90
33837;DHT22;20140;49.356;8.812;2023-11-21T12:30:34;10.90;99.90
33837;DHT22;20140;49.356;8.812;2023-11-21T12:33:03;11.00;99.90
33837;DHT22;20140;49.356;8.812;2023-11-21T12:35:32;11.10;99.90
33837;DHT22;20140;49.356;8.812;2023-11-21T12:38:02;11.10;99.90
33837;DHT22;20140;49.356;8.812;2023-11-21T12:40:28;11.20;99.90
33837;DHT22;20140;49.356;8.812;2023-11-21T12:42:55;11.10;99.90
33837;DHT22;20140;49.356;8.812;2023-11-21T12:45:22;11.10;99.90
33837;DHT22;20140;49.356;8.812;2023-11-21T12:47:48;11.00;99.90
33837;DHT22;20140;49.356;8.812;2023-11-21T12:50:15;10.90;99.90
33837;DHT22;20140;49.356;8.812;2023-11-21T12:52:47;11.20;99.90
33837;DHT22;20140;49.356;8.812;2023-11-21T12:55:19;11.40;99.90
33837;DHT22;20140;49.356;8.812;2023-11-21T12:57:50;12.60;99.90
33837;DHT22;20140;49.356;8.812;2023-11-21T13:00:30;13.30;99.90
33837;DHT22;20140;49.356;8.812;2023-11-21T13:02:57;13.70;99.90
33837;DHT22;20140;49.356;8.812;2023-11-21T13:05:27;14.20;99.90
33837;DHT22;20140;49.356;8.812;2023-11-21T13:07:53;14.20;99.90
33837;DHT22;20140;49.356;8.812;2023-11-21T13:10:22;13.70;99.90
33837;DHT22;20140;49.356;8.812;2023-11-21T13:12:52;12.30;99.90
33837;DHT22;20140;49.356;8.812;2023-11-21T13:15:17;12.10;99.90
33837;DHT22;20140;49.356;8.812;2023-11-21T13:17:43;11.60;99.90
33837;DHT22;20140;49.356;8.812;2023-11-21T13:20:10;12.00;99.90
33837;DHT22;20140;49.356;8.812;2023-11-21T13:22:54;12.10;99.90
33837;DHT22;20140;49.356;8.812;2023-11-21T13:25:22;11.80;99.90
33837;DHT22;20140;49.356;8.812;2023-11-21T13:27:48;11.90;99.90
33837;DHT22;20140;49.356;8.812;2023-11-21T13:30:13;12.10;99.90
33837;DHT22;20140;49.356;8.812;2023-11-21T13:32:44;12.10;99.90
33837;DHT22;20140;49.356;8.812;2023-11-21T13:35:10;12.20;99.90
33837;DHT22;20140;49.356;8.812;2023-11-21T13:37:48;12.30;99.90
33837;DHT22;20140;49.356;8.812;2023-11-21T13:40:21;12.40;99.90
33837;DHT22;20140;49.356;8.812;2023-11-21T13:42:51;12.30;99.90
33837;DHT22;20140;49.356;8.812;2023-11-21T13:45:19;12.30;99.90
33837;DHT22;20140;49.356;8.812;2023-11-21T13:47:45;12.30;99.90
33837;DHT22;20140;49.356;8.812;2023-11-21T13:50:11;12.20;99.90
33837;DHT22;20140;49.356;8.812;2023-11-21T13:52:42;12.30;99.90
33837;DHT22;20140;49.356;8.812;2023-11-21T13:55:09;12.20;99.90
33837;DHT22;20140;49.356;8.812;2023-11-21T13:57:40;12.20;99.90
33837;DHT22;20140;49.356;8.812;2023-11-21T14:00:08;12.20;99.90
33837;DHT22;20140;49.356;8.812;2023-11-21T14:02:54;12.30;99.90
33837;DHT22;20140;49.356;8.812;2023-11-21T14:05:21;12.40;99.90
33837;DHT22;20140;49.356;8.812;2023-11-21T14:07:55;12.60;99.90
33837;DHT22;20140;49.356;8.812;2023-11-21T14:10:21;12.70;99.90
33837;DHT22;20140;49.356;8.812;2023-11-21T14:12:49;12.60;99.90
33837;DHT22;20140;49.356;8.812;2023-11-21T14:15:15;12.30;99.90
33837;DHT22;20140;49.356;8.812;2023-11-21T14:17:44;12.20;99.90
33837;DHT22;20140;49.356;8.812;2023-11-21T14:20:10;12.30;99.90
33837;DHT22;20140;49.356;8.812;2023-11-21T14:22:41;12.30;99.90
33837;DHT22;20140;49.356;8.812;2023-11-21T14:25:06;12.00;99.90
33837;DHT22;20140;49.356;8.812;2023-11-21T14:27:32;11.90;99.90
33837;DHT22;20140;49.356;8.812;2023-11-21T14:29:58;11.80;99.90
33837;DHT22;20140;49.356;8.812;2023-11-21T14:32:24;11.70;99.90
33837;DHT22;20140;49.356;8.812;2023-11-21T14:34:51;11.60;99.90
33837;DHT22;20140;49.356;8.812;2023-11-21T14:37:17;11.70;99.90
33837;DHT22;20140;49.356;8.812;2023-11-21T14:39:42;11.80;99.90
33837;DHT22;20140;49.356;8.812;2023-11-21T14:42:13;11.40;99.90
33837;DHT22;20140;49.356;8.812;2023-11-21T14:44:40;11.50;99.90
33837;DHT22;20140;49.356;8.812;2023-11-21T14:47:06;11.40;99.90
33837;DHT22;20140;49.356;8.812;2023-11-21T14:49:43;11.20;99.90
33837;DHT22;20140;49.356;8.812;2023-11-21T14:52:22;11.10;99.90
33837;DHT22;20140;49.356;8.812;2023-11-21T14:54:58;11.00;99.90
33837;DHT22;20140;49.356;8.812;2023-11-21T14:57:42;11.00;99.90
33837;DHT22;20140;49.356;8.812;2023-11-21T15:00:17;10.90;99.90
33837;DHT22;20140;49.356;8.812;2023-11-21T15:03:02;10.80;99.90
33837;DHT22;20140;49.356;8.812;2023-11-21T15:05:27;10.70;99.90
33837;DHT22;20140;49.356;8.812;2023-11-21T15:07:53;10.70;99.90
33837;DHT22;20140;49.356;8.812;2023-11-21T15:10:22;10.60;99.90
33837;DHT22;20140;49.356;8.812;2023-11-21T15:12:54;10.60;99.90
33837;DHT22;20140;49.356;8.812;2023-11-21T15:15:20;10.50;99.90
33837;DHT22;20140;49.356;8.812;2023-11-21T15:17:46;10.40;99.90
33837;DHT22;20140;49.356;8.812;2023-11-21T15:20:12;10.40;99.90
33837;DHT22;20140;49.356;8.812;2023-11-21T15:22:44;10.40;99.90
33837;DHT22;20140;49.356;8.812;2023-11-21T15:25:10;10.40;99.90
33837;DHT22;20140;49.356;8.812;2023-11-21T15:27:35;10.50;99.90
33837;DHT22;20140;49.356;8.812;2023-11-21T15:30:02;10.50;99.90
33837;DHT22;20140;49.356;8.812;2023-11-21T15:32:28;10.50;99.90
33837;DHT22;20140;49.356;8.812;2023-11-21T15:34:54;10.40;99.90
33837;DHT22;20140;49.356;8.812;2023-11-21T15:37:19;10.20;99.90
33837;DHT22;20140;49.356;8.812;2023-11-21T15:39:45;10.10;99.90
33837;DHT22;20140;49.356;8.812;2023-11-21T15:42:11;10.00;99.90
33837;DHT22;20140;49.356;8.812;2023-11-21T15:44:37;10.00;99.90
33837;DHT22;20140;49.356;8.812;2023-11-21T15:47:03;10.10;99.90
33837;DHT22;20140;49.356;8.812;2023-11-21T15:49:30;10.00;99.90